Irondale, Alabama
Current Conditions -  °F | °C
As of 5:53 AM on Sunday 25 Jan 2015 (Local Time) from KBHM Reporting Station
Clear Clear  
Wind Chill: 30°   Ceiling: Unl
Heat Index: 30°   Visibility: 10mi
Dew Point: 28°   Wind: 3mph
Humidity: 92%   Direction: 120°ESE
Pressure: 29.96"   Gusts: NA
Location:  33.5393°N, 86.6626°W
Report Text: KBHM 251153Z 12003KT 10SM CLR M01/M02 A2996 RMK AO2 SLP146 T10111022 10011 21011 56008
Loading
Personal Weather Stations






























Interactive Weather Map New forecast layout! Learn more

10-Day Weather Forecast

Advertisements
Track Severe Weather on mobile